Time;durP1;ratioP1;P1;durP2;ratioP2;P2;SDS_P1;SDS_P2;PMS_P1;PMS_P2;Temp;Humidity;BMP_temperature;BMP_pressure;BME280_temperature;BME280_humidity;BME280_pressure;Samples;Min_cycle;Max_cycle;Signal;HPM_P1;HPM_P2
2022/10/06 00:01:01;;;;;;;;;;;;;;;12.94;100.00;102096.22;5018589;28;19979;-42
2022/10/06 00:03:26;;;;;;;;;;;;;;;12.89;100.00;102103.84;5016187;28;20423;-42
2022/10/06 00:05:57;;;;;;;;;;;;;;;12.89;100.00;102111.91;5018732;28;19960;-44
2022/10/06 00:08:22;;;;;;;;;;;;;;;12.86;100.00;102112.19;5018117;28;19964;-42
2022/10/06 00:10:47;;;;;;;;;;;;;;;12.82;100.00;102119.69;5004421;28;19964;-46
2022/10/06 00:13:13;;;;;;;;;;;;;;;12.78;100.00;102126.31;5016669;28;19920;-41
2022/10/06 00:15:38;;;;;;;;;;;;;;;12.75;100.00;102128.47;5018953;28;19928;-41
2022/10/06 00:18:04;;;;;;;;;;;;;;;12.72;100.00;102132.25;5016697;28;20338;-40
2022/10/06 00:20:29;;;;;;;;;;;;;;;12.71;100.00;102140.44;5017953;28;19913;-42
2022/10/06 00:22:55;;;;;;;;;;;;;;;12.71;100.00;102153.84;5017722;28;19994;-42
2022/10/06 00:25:22;;;;;;;;;;;;;;;12.68;100.00;102155.81;5018514;28;19923;-41
2022/10/06 00:27:48;;;;;;;;;;;;;;;12.68;100.00;102154.97;5017179;28;20509;-43
2022/10/06 00:30:15;;;;;;;;;;;;;;;12.66;100.00;102157.81;5016323;28;20380;-43
2022/10/06 00:32:40;;;;;;;;;;;;;;;12.67;100.00;102169.38;5018252;28;19958;-40
2022/10/06 00:35:07;;;;;;;;;;;;;;;12.66;100.00;102170.34;5012548;28;19921;-41
2022/10/06 00:37:36;;;;;;;;;;;;;;;12.65;100.00;102177.53;5016981;28;20480;-41
2022/10/06 00:40:05;;;;;;;;;;;;;;;12.67;100.00;102180.09;5013478;28;20368;-41
2022/10/06 00:42:31;;;;;;;;;;;;;;;12.65;100.00;102184.75;5008881;28;19914;-40
2022/10/06 00:44:58;;;;;;;;;;;;;;;12.62;100.00;102180.50;5012262;28;20245;-40
2022/10/06 00:47:25;;;;;;;;;;;;;;;12.61;100.00;102188.69;5018458;28;19928;-40
2022/10/06 00:49:53;;;;;;;;;;;;;;;12.59;100.00;102198.69;5017556;28;19913;-42
2022/10/06 00:52:21;;;;;;;;;;;;;;;12.57;100.00;102198.84;5016048;28;19917;-39
2022/10/06 00:54:47;;;;;;;;;;;;;;;12.55;100.00;102203.50;5017894;28;19917;-41
2022/10/06 00:57:12;;;;;;;;;;;;;;;12.48;100.00;102200.53;5016958;28;19917;-40
2022/10/06 00:59:39;;;;;;;;;;;;;;;12.47;100.00;102203.34;5012687;28;19925;-41
2022/10/06 01:02:26;;;;;;;;;;;;;;;12.44;100.00;102207.19;5008625;28;19970;-41
2022/10/06 01:04:57;;;;;;;;;;;;;;;12.40;100.00;102204.91;5016972;28;19920;-40
2022/10/06 01:07:25;;;;;;;;;;;;;;;12.36;100.00;102214.22;5016392;28;20237;-39
2022/10/06 01:09:50;;;;;;;;;;;;;;;12.32;100.00;102214.50;5017341;28;20158;-40
2022/10/06 01:12:15;;;;;;;;;;;;;;;12.27;100.00;102222.09;5017023;28;20128;-41
2022/10/06 01:14:41;;;;;;;;;;;;;;;12.25;100.00;102224.06;5017078;28;19982;-42
2022/10/06 01:17:09;;;;;;;;;;;;;;;12.26;100.00;102225.75;5016998;28;19924;-40
2022/10/06 01:19:46;;;;;;;;;;;;;;;12.28;100.00;102239.00;5016873;28;20026;-40
2022/10/06 01:22:13;;;;;;;;;;;;;;;12.29;100.00;102238.03;5016184;28;19917;-41
2022/10/06 01:24:38;;;;;;;;;;;;;;;12.28;100.00;102239.84;5017244;28;20102;-39
2022/10/06 01:27:04;;;;;;;;;;;;;;;12.26;100.00;102244.50;5017288;28;20095;-40
2022/10/06 01:29:31;;;;;;;;;;;;;;;12.24;100.00;102245.63;5017266;28;19939;-39
2022/10/06 01:31:56;;;;;;;;;;;;;;;12.19;100.00;102253.25;5016948;28;19975;-41
2022/10/06 01:34:21;;;;;;;;;;;;;;;12.19;100.00;102263.94;5016918;28;19917;-42
2022/10/06 01:36:46;;;;;;;;;;;;;;;12.15;100.00;102258.00;5015071;28;19971;-41
2022/10/06 01:39:12;;;;;;;;;;;;;;;12.18;100.00;102256.88;5016581;28;19917;-40
2022/10/06 01:41:37;;;;;;;;;;;;;;;12.19;100.00;102264.78;5015532;28;20263;-42
2022/10/06 01:44:02;;;;;;;;;;;;;;;12.22;100.00;102277.03;5016379;28;20023;-41
2022/10/06 01:46:28;;;;;;;;;;;;;;;12.17;100.00;102266.78;5017242;28;19917;-41
2022/10/06 01:48:53;;;;;;;;;;;;;;;12.16;100.00;102267.75;5016661;28;20370;-42
2022/10/06 01:51:18;;;;;;;;;;;;;;;12.10;100.00;102270.94;5006474;28;19948;-42
2022/10/06 01:53:44;;;;;;;;;;;;;;;12.06;100.00;102275.72;5016041;28;19961;-41
2022/10/06 01:56:09;;;;;;;;;;;;;;;12.03;100.00;102277.84;5015458;28;20019;-40
2022/10/06 01:58:34;;;;;;;;;;;;;;;11.97;100.00;102270.38;5015941;28;20364;-41
2022/10/06 02:01:06;;;;;;;;;;;;;;;11.97;100.00;102281.06;5016797;28;20491;-43
2022/10/06 02:03:35;;;;;;;;;;;;;;;11.93;100.00;102286.69;5017348;28;20348;-42
2022/10/06 02:06:01;;;;;;;;;;;;;;;11.89;100.00;102285.22;5017347;28;20016;-40
2022/10/06 02:08:26;;;;;;;;;;;;;;;11.86;100.00;102288.19;5016290;28;20016;-42
2022/10/06 02:10:51;;;;;;;;;;;;;;;11.81;100.00;102282.34;5016342;28;20496;-41
2022/10/06 02:13:16;;;;;;;;;;;;;;;11.81;100.00;102294.91;5011056;28;20390;-40
2022/10/06 02:15:41;;;;;;;;;;;;;;;11.75;100.00;102301.66;5020345;28;19917;-41
2022/10/06 02:18:07;;;;;;;;;;;;;;;11.72;100.00;102302.75;5021036;28;19917;-41
2022/10/06 02:20:32;;;;;;;;;;;;;;;11.70;100.00;102307.38;5021263;28;19905;-41
2022/10/06 02:22:57;;;;;;;;;;;;;;;11.71;100.00;102316.25;5019462;28;20020;-41
2022/10/06 02:25:23;;;;;;;;;;;;;;;11.71;100.00;102316.25;5020826;28;19925;-41
2022/10/06 02:27:48;;;;;;;;;;;;;;;11.68;100.00;102321.91;5019340;28;20177;-40
2022/10/06 02:30:13;;;;;;;;;;;;;;;11.63;100.00;102327.63;5019671;28;19956;-39
2022/10/06 02:32:41;;;;;;;;;;;;;;;11.63;100.00;102321.44;5019913;28;20085;-42
2022/10/06 02:35:07;;;;;;;;;;;;;;;11.62;100.00;102335.78;5020838;28;19912;-41
2022/10/06 02:37:32;;;;;;;;;;;;;;;11.54;100.00;102337.31;5020254;28;19917;-41
2022/10/06 02:39:58;;;;;;;;;;;;;;;11.52;100.00;102347.28;5019512;28;19921;-40
2022/10/06 02:42:23;;;;;;;;;;;;;;;11.48;100.00;102342.34;5019440;28;20482;-41
2022/10/06 02:44:50;;;;;;;;;;;;;;;11.45;100.00;102355.97;5019597;28;20000;-41
2022/10/06 02:47:15;;;;;;;;;;;;;;;11.41;100.00;102352.69;5020681;28;20284;-41
2022/10/06 02:49:41;;;;;;;;;;;;;;;11.38;100.00;102358.31;5019832;28;19913;-41
2022/10/06 02:52:07;;;;;;;;;;;;;;;11.33;100.00;102357.84;5019146;28;20034;-42
2022/10/06 02:54:34;;;;;;;;;;;;;;;11.28;100.00;102363.56;5020517;28;19986;-43
2022/10/06 02:56:59;;;;;;;;;;;;;;;11.24;100.00;102366.66;5019951;28;20229;-42
2022/10/06 02:59:24;;;;;;;;;;;;;;;11.20;100.00;102368.69;5019911;28;19925;-41
2022/10/06 03:01:51;;;;;;;;;;;;;;;11.17;100.00;102377.00;5020095;28;20304;-46
2022/10/06 03:04:16;;;;;;;;;;;;;;;11.14;100.00;102380.75;5020325;28;19917;-41
2022/10/06 03:06:41;;;;;;;;;;;;;;;11.13;100.00;102380.88;5018595;28;19928;-43
2022/10/06 03:09:07;;;;;;;;;;;;;;;11.14;100.00;102391.47;5019669;28;19913;-44
2022/10/06 03:11:33;;;;;;;;;;;;;;;11.10;100.00;102390.03;5020678;28;20004;-42
2022/10/06 03:13:59;;;;;;;;;;;;;;;11.04;100.00;102393.19;5018551;28;19913;-43
2022/10/06 03:16:25;;;;;;;;;;;;;;;11.01;100.00;102394.31;5019445;28;20007;-43
2022/10/06 03:18:51;;;;;;;;;;;;;;;10.97;100.00;102387.50;5018824;28;20357;-42
2022/10/06 03:21:17;;;;;;;;;;;;;;;10.95;100.00;102394.81;5020061;28;20105;-45
2022/10/06 03:23:43;;;;;;;;;;;;;;;10.93;100.00;102398.56;5018793;28;19981;-45
2022/10/06 03:26:09;;;;;;;;;;;;;;;10.88;100.00;102411.44;5019164;28;19958;-43
2022/10/06 03:28:34;;;;;;;;;;;;;;;10.85;100.00;102411.72;5018471;28;19924;-41
2022/10/06 03:31:05;;;;;;;;;;;;;;;10.79;100.00;102407.72;5016681;28;20177;-43
2022/10/06 03:33:30;;;;;;;;;;;;;;;10.77;100.00;102421.19;5006782;28;20187;-43
2022/10/06 03:36:16;;;;;;;;;;;;;;;10.74;100.00;102421.47;5019110;28;20004;-46
2022/10/06 03:38:41;;;;;;;;;;;;;;;10.71;100.00;102427.03;5005300;28;20355;-43
2022/10/06 03:41:08;;;;;;;;;;;;;;;10.69;100.00;102423.63;5019577;28;19913;-43
2022/10/06 03:43:34;;;;;;;;;;;;;;;10.65;100.00;102435.53;5018110;28;19943;-42
2022/10/06 03:46:00;;;;;;;;;;;;;;;10.61;100.00;102434.94;5019573;28;19936;-42
2022/10/06 03:48:29;;;;;;;;;;;;;;;10.57;100.00;102435.31;5019115;28;19917;-41
2022/10/06 03:50:56;;;;;;;;;;;;;;;10.55;100.00;102437.25;5018793;28;19928;-43
2022/10/06 03:53:24;;;;;;;;;;;;;;;10.48;100.00;102450.25;5017281;28;19913;-44
2022/10/06 03:55:50;;;;;;;;;;;;;;;10.48;100.00;102452.06;5018812;28;19917;-43
2022/10/06 03:58:16;;;;;;;;;;;;;;;10.44;100.00;102454.97;5017661;28;19914;-44
2022/10/06 04:00:41;;;;;;;;;;;;;;;10.44;100.00;102467.50;5018231;28;20481;-43
2022/10/06 04:03:06;;;;;;;;;;;;;;;10.41;100.00;102478.41;5013933;28;19913;-41
2022/10/06 04:05:31;;;;;;;;;;;;;;;10.41;100.00;102476.56;5019193;28;20363;-42
2022/10/06 04:07:56;;;;;;;;;;;;;;;10.37;100.00;102479.59;5017603;28;20087;-44
2022/10/06 04:10:22;;;;;;;;;;;;;;;10.36;100.00;102486.78;5018813;28;19920;-42
2022/10/06 04:12:47;;;;;;;;;;;;;;;10.35;100.00;102484.22;5016867;28;20164;-41
2022/10/06 04:15:12;;;;;;;;;;;;;;;10.32;100.00;102492.47;5018580;28;19913;-41
2022/10/06 04:17:37;;;;;;;;;;;;;;;10.29;100.00;102496.19;5013982;28;19921;-42
2022/10/06 04:20:02;;;;;;;;;;;;;;;10.27;100.00;102492.81;5018118;28;20438;-41
2022/10/06 04:22:28;;;;;;;;;;;;;;;10.27;100.00;102504.34;5017537;28;20011;-42
2022/10/06 04:24:53;;;;;;;;;;;;;;;10.24;100.00;102511.72;5016111;28;20411;-42
2022/10/06 04:27:27;;;;;;;;;;;;;;;10.22;100.00;102516.34;5009302;28;19919;-41
2022/10/06 04:29:52;;;;;;;;;;;;;;;10.19;100.00;102511.22;5015251;28;19917;-40
2022/10/06 04:32:18;;;;;;;;;;;;;;;10.19;100.00;102511.22;5018650;28;20321;-42
2022/10/06 04:34:43;;;;;;;;;;;;;;;10.14;100.00;102519.59;5017715;28;19964;-41
2022/10/06 04:37:09;;;;;;;;;;;;;;;10.12;100.00;102520.69;5008651;28;20272;-42
2022/10/06 04:39:36;;;;;;;;;;;;;;;10.09;100.00;102519.94;5018248;28;19917;-41
2022/10/06 04:42:02;;;;;;;;;;;;;;;10.07;100.00;102519.19;5017874;28;19916;-41
2022/10/06 04:44:27;;;;;;;;;;;;;;;10.06;100.00;102516.66;5017267;28;20296;-43
2022/10/06 04:46:52;;;;;;;;;;;;;;;10.04;100.00;102519.44;5016952;28;19928;-41
2022/10/06 04:49:17;;;;;;;;;;;;;;;10.04;100.00;102531.94;5018407;28;19982;-41
2022/10/06 04:51:42;;;;;;;;;;;;;;;10.03;100.00;102533.75;5017122;28;20313;-44
2022/10/06 04:54:08;;;;;;;;;;;;;;;10.01;100.00;102541.03;5017870;28;20213;-41
2022/10/06 04:56:34;;;;;;;;;;;;;;;9.97;100.00;102541.38;5018642;28;20152;-41
2022/10/06 04:58:59;;;;;;;;;;;;;;;9.95;100.00;102543.31;5011975;28;19971;-41
2022/10/06 05:01:29;;;;;;;;;;;;;;;9.88;100.00;102537.59;5008167;28;19917;-40
2022/10/06 05:03:55;;;;;;;;;;;;;;;9.88;100.00;102554.44;5000082;28;20020;-40
2022/10/06 05:06:24;;;;;;;;;;;;;;;9.84;100.00;102549.44;5009159;28;19926;-40
2022/10/06 05:08:54;;;;;;;;;;;;;;;9.83;100.00;102561.09;5004077;28;20709;-41
2022/10/06 05:11:20;;;;;;;;;;;;;;;9.81;100.00;102571.00;5002171;28;20357;-41
2022/10/06 05:13:45;;;;;;;;;;;;;;;9.78;100.00;102565.91;4996782;28;19921;-42
2022/10/06 05:16:12;;;;;;;;;;;;;;;9.76;100.00;102568.69;4997683;28;19964;-39
2022/10/06 05:18:37;;;;;;;;;;;;;;;9.74;100.00;102575.09;5002525;28;19917;-40
2022/10/06 05:21:06;;;;;;;;;;;;;;;9.71;100.00;102585.03;5002008;28;20387;-40
2022/10/06 05:23:33;;;;;;;;;;;;;;;9.71;100.00;102586.88;4997866;28;19989;-40
2022/10/06 05:25:59;;;;;;;;;;;;;;;9.69;100.00;102589.63;5008967;28;20385;-40
2022/10/06 05:28:26;;;;;;;;;;;;;;;9.67;100.00;102588.91;5005614;28;20213;-39
2022/10/06 05:30:53;;;;;;;;;;;;;;;9.66;100.00;102586.34;5013948;28;20922;-40
2022/10/06 05:33:19;;;;;;;;;;;;;;;9.65;100.00;102597.97;5015809;28;19928;-41
2022/10/06 05:35:58;;;;;;;;;;;;;;;9.64;100.00;102606.94;5015577;28;19918;-40
2022/10/06 05:38:24;;;;;;;;;;;;;;;9.62;100.00;102606.19;5011230;28;20043;-40
2022/10/06 05:40:49;;;;;;;;;;;;;;;9.61;100.00;102610.69;5014800;28;20008;-40
2022/10/06 05:43:15;;;;;;;;;;;;;;;9.63;100.00;102610.56;5015905;28;19912;-40
2022/10/06 05:45:50;;;;;;;;;;;;;;;9.61;100.00;102618.69;5013969;28;19956;-40
2022/10/06 05:48:15;;;;;;;;;;;;;;;9.61;100.00;102621.34;5013603;28;20410;-42
2022/10/06 05:50:41;;;;;;;;;;;;;;;9.60;100.00;102630.31;5014672;28;19960;-41
2022/10/06 05:53:06;;;;;;;;;;;;;;;9.58;100.00;102628.72;5013376;28;19913;-40
2022/10/06 05:55:31;;;;;;;;;;;;;;;9.57;100.00;102627.84;5018188;28;20417;-42
2022/10/06 05:57:56;;;;;;;;;;;;;;;9.57;100.00;102632.34;5010499;28;19983;-39
2022/10/06 06:00:21;;;;;;;;;;;;;;;9.56;100.00;102638.66;5012219;28;19913;-42
2022/10/06 06:02:47;;;;;;;;;;;;;;;9.55;100.00;102645.78;5015299;28;19924;-40
2022/10/06 06:05:12;;;;;;;;;;;;;;;9.54;100.00;102649.44;5013656;28;19925;-40
2022/10/06 06:07:37;;;;;;;;;;;;;;;9.55;100.00;102658.28;5013801;28;19948;-40
2022/10/06 06:10:03;;;;;;;;;;;;;;;9.53;100.00;102653.06;5015020;28;19921;-41
2022/10/06 06:12:28;;;;;;;;;;;;;;;9.55;100.00;102663.63;4999815;28;20349;-41
2022/10/06 06:17:37;;;;;;;;;;;;;;;9.56;100.00;102665.34;4999379;28;20439;-44
2022/10/06 06:20:03;;;;;;;;;;;;;;;9.56;100.00;102668.84;5006647;28;20019;-40
2022/10/06 06:22:28;;;;;;;;;;;;;;;9.56;100.00;102668.00;5011739;28;19913;-41
2022/10/06 06:24:53;;;;;;;;;;;;;;;9.57;100.00;102669.69;5012535;28;20364;-41
2022/10/06 06:27:19;;;;;;;;;;;;;;;9.59;100.00;102675.75;5001991;28;20067;-40
2022/10/06 06:29:44;;;;;;;;;;;;;;;9.59;100.00;102673.97;5009138;28;20306;-40
2022/10/06 06:32:09;;;;;;;;;;;;;;;9.61;100.00;102671.19;5013375;28;20395;-41
2022/10/06 06:34:34;;;;;;;;;;;;;;;9.62;100.00;102672.88;5008148;28;19917;-41
2022/10/06 06:37:02;;;;;;;;;;;;;;;9.64;100.00;102678.94;5012010;28;20190;-41
2022/10/06 06:39:27;;;;;;;;;;;;;;;9.65;100.00;102681.53;5013793;28;20306;-41
2022/10/06 06:41:52;;;;;;;;;;;;;;;9.67;100.00;102689.41;5005860;28;19960;-41
2022/10/06 06:44:18;;;;;;;;;;;;;;;9.70;100.00;102694.53;5014257;28;20011;-42
2022/10/06 06:46:46;;;;;;;;;;;;;;;9.73;100.00;102688.13;5001215;28;19914;-42
2022/10/06 06:49:11;;;;;;;;;;;;;;;9.77;100.00;102700.28;4997896;28;19913;-45
2022/10/06 06:51:39;;;;;;;;;;;;;;;9.82;100.00;102698.97;5003790;28;19913;-46
2022/10/06 06:54:05;;;;;;;;;;;;;;;9.85;100.00;102712.13;5007827;28;20035;-40
2022/10/06 06:56:33;;;;;;;;;;;;;;;9.88;100.00;102708.38;5015315;28;19925;-42
2022/10/06 06:58:59;;;;;;;;;;;;;;;9.95;100.00;102711.47;5000977;28;19940;-46
2022/10/06 07:01:24;;;;;;;;;;;;;;;9.99;100.00;102716.44;4999870;28;20237;-42
2022/10/06 07:03:54;;;;;;;;;;;;;;;10.04;100.00;102716.97;4999384;28;19917;-41
2022/10/06 07:06:19;;;;;;;;;;;;;;;10.11;100.00;102727.22;4999442;28;20136;-41
2022/10/06 07:08:46;;;;;;;;;;;;;;;10.19;100.00;102731.03;5000267;28;19971;-41
2022/10/06 07:11:11;;;;;;;;;;;;;;;10.26;100.00;102742.09;5002083;28;20368;-46
2022/10/06 07:13:37;;;;;;;;;;;;;;;10.32;100.00;102741.69;5005996;28;19932;-42
2022/10/06 07:26:57;;;;;;;;;;;;;;;10.72;100.00;102756.59;5013437;28;20163;-45
2022/10/06 07:29:23;;;;;;;;;;;;;;;10.80;100.00;102762.22;5016277;28;19925;-43
2022/10/06 07:31:48;;;;;;;;;;;;;;;10.89;100.00;102772.19;5005965;28;19925;-43
2022/10/06 07:34:13;;;;;;;;;;;;;;;10.98;100.00;102784.88;5007519;28;19917;-43
2022/10/06 07:36:38;;;;;;;;;;;;;;;11.06;100.00;102796.81;5006962;28;20020;-42
2022/10/06 07:39:03;;;;;;;;;;;;;;;11.13;100.00;102800.72;5008250;28;19921;-41
2022/10/06 07:41:30;;;;;;;;;;;;;;;11.19;100.00;102803.78;5016598;28;20399;-42
2022/10/06 07:43:55;;;;;;;;;;;;;;;11.28;100.00;102801.38;5009297;28;19964;-43
2022/10/06 07:46:20;;;;;;;;;;;;;;;11.34;100.00;102792.91;5013781;28;20414;-44
2022/10/06 07:48:48;;;;;;;;;;;;;;;11.43;100.00;102800.19;5015107;28;20408;-43
2022/10/06 07:51:15;;;;;;;;;;;;;;;11.54;100.00;102802.91;5013551;28;19963;-43
2022/10/06 07:53:41;;;;;;;;;;;;;;;11.62;100.00;102813.00;4999898;28;19965;-42
2022/10/06 07:56:07;;;;;;;;;;;;;;;11.67;100.00;102804.59;5009663;28;19963;-41
2022/10/06 07:58:33;;;;;;;;;;;;;;;11.75;100.00;102807.53;5016967;28;19921;-41
2022/10/06 08:01:09;;;;;;;;;;;;;;;11.81;100.00;102808.88;5005211;28;19963;-40
2022/10/06 08:03:37;;;;;;;;;;;;;;;11.81;100.00;102811.56;5017301;28;19916;-42
2022/10/06 08:06:02;;;;;;;;;;;;;;;11.93;100.00;102821.31;5009382;28;20236;-41
2022/10/06 08:08:32;;;;;;;;;;;;;;;12.01;100.00;102823.41;5007869;28;19917;-41
2022/10/06 08:10:58;;;;;;;;;;;;;;;12.09;100.00;102829.84;4997835;28;19917;-43
2022/10/06 08:13:23;;;;;;;;;;;;;;;12.18;100.00;102830.94;5003438;28;19925;-41
2022/10/06 08:15:50;;;;;;;;;;;;;;;12.20;100.00;102834.34;5003342;28;19913;-40
2022/10/06 08:18:16;;;;;;;;;;;;;;;12.26;100.00;102833.00;5018140;28;19975;-39
2022/10/06 08:20:41;;;;;;;;;;;;;;;12.30;100.00;102840.69;4999365;28;19905;-40
2022/10/06 08:23:10;;;;;;;;;;;;;;;12.40;100.00;102846.13;5004670;28;19983;-42
2022/10/06 08:25:42;;;;;;;;;;;;;;;12.49;100.00;102853.44;4998786;28;19964;-41
2022/10/06 08:28:10;;;;;;;;;;;;;;;12.59;100.00;102850.00;5008873;28;19921;-40
2022/10/06 08:30:35;;;;;;;;;;;;;;;12.68;100.00;102852.78;5003885;28;19913;-40
2022/10/06 08:33:01;;;;;;;;;;;;;;;12.77;100.00;102856.53;5002746;28;20139;-40
2022/10/06 08:35:27;;;;;;;;;;;;;;;12.85;100.00;102856.78;4998742;28;20315;-42
2022/10/06 08:37:53;;;;;;;;;;;;;;;12.98;100.00;102862.00;4997298;28;19995;-42
2022/10/06 08:40:18;;;;;;;;;;;;;;;13.09;100.00;102863.75;4999031;28;19913;-40
2022/10/06 08:42:47;;;;;;;;;;;;;;;13.22;100.00;102861.75;5004946;28;20299;-42
2022/10/06 08:45:19;;;;;;;;;;;;;;;13.35;100.00;102866.97;5017252;28;19975;-41
2022/10/06 08:48:03;;;;;;;;;;;;;;;13.50;100.00;102877.38;5016277;28;19936;-40
2022/10/06 08:50:31;;;;;;;;;;;;;;;13.58;100.00;102872.22;5015351;28;19939;-44
2022/10/06 08:53:12;;;;;;;;;;;;;;;13.66;100.00;102874.22;5013991;28;19921;-42
2022/10/06 08:55:39;;;;;;;;;;;;;;;13.75;100.00;102882.38;5005173;28;19932;-43
2022/10/06 08:58:27;;;;;;;;;;;;;;;13.86;100.00;102877.91;5008154;28;20364;-41
2022/10/06 09:00:55;;;;;;;;;;;;;;;13.98;100.00;102887.56;5006530;28;19944;-43
2022/10/06 09:03:23;;;;;;;;;;;;;;;14.01;100.00;102883.78;5007739;28;20026;-43
2022/10/06 09:06:12;;;;;;;;;;;;;;;14.11;100.00;102890.88;5001627;28;20012;-44
2022/10/06 09:08:49;;;;;;;;;;;;;;;14.22;100.00;102897.16;5012293;28;19929;-43
2022/10/06 09:11:20;;;;;;;;;;;;;;;14.24;100.00;102911.31;5016010;28;19928;-47
2022/10/06 09:14:08;;;;;;;;;;;;;;;14.30;100.00;102902.72;5005132;28;19921;-44
2022/10/06 09:16:36;;;;;;;;;;;;;;;14.38;100.00;102912.81;4998140;28;19917;-43
2022/10/06 09:19:09;;;;;;;;;;;;;;;14.40;100.00;102914.34;4998478;28;20311;-45
2022/10/06 09:21:38;;;;;;;;;;;;;;;14.42;100.00;102907.00;5010520;28;20324;-40
2022/10/06 09:24:06;;;;;;;;;;;;;;;14.48;98.74;102919.06;5015688;28;19917;-42
2022/10/06 09:26:32;;;;;;;;;;;;;;;14.54;100.00;102921.19;5002950;28;19928;-41
2022/10/06 09:28:57;;;;;;;;;;;;;;;14.63;100.00;102922.25;5005627;28;20020;-43
2022/10/06 09:31:26;;;;;;;;;;;;;;;14.71;100.00;102925.97;5011764;28;20281;-42
2022/10/06 09:33:53;;;;;;;;;;;;;;;14.83;100.00;102928.53;5007507;28;19914;-44
2022/10/06 09:36:18;;;;;;;;;;;;;;;14.90;99.33;102925.16;5001850;28;19989;-43
2022/10/06 09:38:44;;;;;;;;;;;;;;;15.04;100.00;102920.38;4997699;28;19939;-47
2022/10/06 09:41:10;;;;;;;;;;;;;;;15.15;98.71;102930.16;4997912;28;19929;-45
2022/10/06 09:43:37;;;;;;;;;;;;;;;15.19;96.21;102932.44;5010769;28;20004;-43
2022/10/06 09:46:25;;;;;;;;;;;;;;;15.32;98.20;102933.97;5017330;28;19913;-43
2022/10/06 09:49:26;;;;;;;;;;;;;;;15.36;96.12;102932.69;5017330;28;20582;-43
2022/10/06 09:51:59;;;;;;;;;;;;;;;15.44;96.84;102928.34;5011586;28;20019;-43
2022/10/06 09:54:24;;;;;;;;;;;;;;;15.55;96.73;102932.72;4996521;28;19921;-43
2022/10/06 09:56:52;;;;;;;;;;;;;;;15.69;93.67;102938.66;4996965;28;20083;-42
2022/10/06 09:59:39;;;;;;;;;;;;;;;15.82;93.42;102942.78;4999602;28;19921;-43
2022/10/06 10:02:17;;;;;;;;;;;;;;;16.00;93.17;102942.91;5005802;28;20253;-43
2022/10/06 10:04:42;;;;;;;;;;;;;;;16.23;91.47;102937.97;5004103;28;20063;-45
2022/10/06 10:07:15;;;;;;;;;;;;;;;16.55;90.66;102942.13;5001641;28;19929;-47
2022/10/06 10:09:40;;;;;;;;;;;;;;;16.61;87.71;102937.97;5001841;28;19960;-41
2022/10/06 10:12:26;;;;;;;;;;;;;;;16.51;86.86;102940.69;5002971;28;19913;-45
2022/10/06 10:14:52;;;;;;;;;;;;;;;16.30;87.73;102940.09;4996815;28;19913;-44
2022/10/06 10:17:36;;;;;;;;;;;;;;;16.13;86.17;102939.84;5000581;28;19914;-44
2022/10/06 10:20:05;;;;;;;;;;;;;;;15.97;87.94;102945.00;4997434;28;19971;-44
2022/10/06 10:22:34;;;;;;;;;;;;;;;15.85;87.44;102949.69;4996787;28;19921;-47
2022/10/06 10:25:18;;;;;;;;;;;;;;;15.69;84.43;102938.66;5003271;28;19936;-42
2022/10/06 10:27:50;;;;;;;;;;;;;;;15.73;85.76;102940.06;5002146;28;19975;-43
2022/10/06 10:30:16;;;;;;;;;;;;;;;15.80;85.33;102949.28;4997002;28;19918;-46
2022/10/06 10:32:51;;;;;;;;;;;;;;;16.00;84.17;102944.72;5015304;28;19920;-42
2022/10/06 10:35:28;;;;;;;;;;;;;;;15.98;83.79;102952.09;5004358;28;20426;-42
2022/10/06 10:38:14;;;;;;;;;;;;;;;15.89;82.27;102956.53;5017864;28;20061;-42
2022/10/06 10:40:42;;;;;;;;;;;;;;;15.72;81.14;102946.44;5010663;28;20158;-43
2022/10/06 10:43:15;;;;;;;;;;;;;;;15.80;80.58;102944.78;5011016;28;19997;-42
2022/10/06 10:45:55;;;;;;;;;;;;;;;15.91;81.89;102945.59;5020016;28;19925;-42
2022/10/06 10:48:29;;;;;;;;;;;;;;;16.19;82.62;102946.50;5020223;28;20000;-41
2022/10/06 10:50:57;;;;;;;;;;;;;;;16.41;78.70;102942.59;5019767;28;20021;-42
2022/10/06 10:53:49;;;;;;;;;;;;;;;16.46;79.93;102952.94;5020207;28;19921;-43
2022/10/06 10:56:15;;;;;;;;;;;;;;;16.66;76.90;102954.56;5018652;28;19925;-43
2022/10/06 10:58:44;;;;;;;;;;;;;;;16.57;77.86;102956.28;5018518;28;20394;-42
2022/10/06 11:01:18;;;;;;;;;;;;;;;16.58;77.32;102955.31;5008237;28;20510;-42
2022/10/06 11:03:55;;;;;;;;;;;;;;;16.74;80.26;102953.81;5020433;28;19924;-45
2022/10/06 11:06:32;;;;;;;;;;;;;;;16.90;73.24;102953.19;5018532;28;19968;-43
2022/10/06 11:09:02;;;;;;;;;;;;;;;16.97;75.83;102962.34;5019285;28;19913;-42
2022/10/06 11:11:46;;;;;;;;;;;;;;;16.92;75.56;102961.97;5006819;28;19913;-43
2022/10/06 11:14:25;;;;;;;;;;;;;;;16.76;74.72;102970.69;5018529;28;19913;-46
2022/10/06 11:17:00;;;;;;;;;;;;;;;16.62;72.55;102961.25;5019013;28;19975;-42
2022/10/06 11:19:28;;;;;;;;;;;;;;;16.64;73.36;102966.50;5020373;28;20390;-42
2022/10/06 11:22:00;;;;;;;;;;;;;;;16.99;73.94;102960.38;5018576;28;20027;-43
2022/10/06 11:24:44;;;;;;;;;;;;;;;17.38;69.72;102961.94;5019708;28;19920;-44
2022/10/06 11:27:19;;;;;;;;;;;;;;;17.47;68.69;102959.16;5018881;28;19932;-44
2022/10/06 11:29:59;;;;;;;;;;;;;;;17.68;66.05;102957.97;5018169;28;20368;-46
2022/10/06 11:32:46;;;;;;;;;;;;;;;17.97;66.44;102959.59;5019890;28;20264;-39
2022/10/06 11:35:19;;;;;;;;;;;;;;;18.22;65.73;102952.47;5019271;28;19917;-43
2022/10/06 11:37:48;;;;;;;;;;;;;;;18.32;62.06;102958.63;5019639;28;20237;-43
2022/10/06 11:40:32;;;;;;;;;;;;;;;18.06;63.71;102969.47;5018919;28;19923;-41
2022/10/06 11:43:04;;;;;;;;;;;;;;;17.57;64.83;102961.78;5017375;28;20295;-41
2022/10/06 11:45:50;;;;;;;;;;;;;;;17.08;65.25;102972.13;5019054;28;20410;-41
2022/10/06 11:48:23;;;;;;;;;;;;;;;16.72;65.88;102967.44;5011288;28;19931;-40
2022/10/06 11:50:54;;;;;;;;;;;;;;;16.52;64.90;102964.00;5017561;28;19917;-40
2022/10/06 11:53:38;;;;;;;;;;;;;;;16.40;65.34;102960.63;5018770;28;19917;-41
2022/10/06 11:56:15;;;;;;;;;;;;;;;16.23;67.61;102964.94;5019822;28;20523;-41
2022/10/06 11:58:49;;;;;;;;;;;;;;;16.11;68.61;102959.88;5018099;28;20276;-42
2022/10/06 12:01:29;;;;;;;;;;;;;;;16.05;68.45;102950.53;5013224;28;20327;-41
2022/10/06 12:04:07;;;;;;;;;;;;;;;16.14;67.66;102949.66;5013542;28;20162;-41
2022/10/06 12:06:50;;;;;;;;;;;;;;;16.35;66.27;102948.59;5019051;28;19955;-43
2022/10/06 12:09:26;;;;;;;;;;;;;;;16.51;68.45;102948.78;5019047;28;19917;-44
2022/10/06 12:11:52;;;;;;;;;;;;;;;16.80;68.50;102947.78;5017814;28;20175;-42
2022/10/06 12:14:29;;;;;;;;;;;;;;;16.87;66.60;102954.34;5018306;28;20198;-44
2022/10/06 12:16:58;;;;;;;;;;;;;;;16.87;63.66;102948.06;5018291;28;19951;-40
2022/10/06 12:19:27;;;;;;;;;;;;;;;17.00;64.42;102953.13;5017731;28;19913;-40
2022/10/06 12:22:15;;;;;;;;;;;;;;;17.26;62.82;102951.38;5017587;28;20007;-41
2022/10/06 12:24:50;;;;;;;;;;;;;;;17.65;62.25;102955.59;5004410;28;19921;-41
2022/10/06 12:27:26;;;;;;;;;;;;;;;18.23;60.56;102940.66;5018279;28;19913;-40
2022/10/06 12:29:58;;;;;;;;;;;;;;;18.45;57.33;102940.09;5017748;28;19967;-41
2022/10/06 12:32:37;;;;;;;;;;;;;;;18.14;57.71;102938.91;5018129;28;19921;-41
2022/10/06 12:35:15;;;;;;;;;;;;;;;18.37;56.75;102934.63;5017480;28;19952;-40
2022/10/06 12:37:42;;;;;;;;;;;;;;;18.22;58.84;102931.69;5017769;28;20011;-42
2022/10/06 12:40:26;;;;;;;;;;;;;;;18.09;58.85;102947.47;5012954;28;19921;-41
2022/10/06 12:42:53;;;;;;;;;;;;;;;17.97;57.48;102946.91;5015486;28;19932;-41
2022/10/06 12:45:18;;;;;;;;;;;;;;;18.34;54.29;102934.13;5015638;28;19921;-44
2022/10/06 12:47:44;;;;;;;;;;;;;;;18.72;58.25;102938.16;5015963;28;19924;-43
2022/10/06 12:50:15;;;;;;;;;;;;;;;19.61;54.59;102935.78;5012416;28;19924;-42
2022/10/06 12:52:43;;;;;;;;;;;;;;;20.41;51.46;102940.38;5013315;28;19921;-45